Terminal Aerodrome Forecast
Issued by NWS

Home | Current Version | Previous Version | Text Only | Print | Product List | Glossary On
Versions: 1 2 3 4 5 6 7 8 9 10 11 12 13 14 15
000
FTUS43 KOAX 230800 AAA
TAFBFF
TAF AMD
KBFF 230819Z 2308/2406 09004KT P6SM OVC080
     FM231100 13006KT P6SM BKN015
      TEMPO 2311/2313 BKN007
     FM231400 25010KT P6SM SCT120=

USA.gov is the U.S. government's official web portal to all federal, state and local government web resources and services.